Time;durP1;ratioP1;P1;durP2;ratioP2;P2;SDS_P1;SDS_P2;PMS_P1;PMS_P2;Temp;Humidity;BMP_temperature;BMP_pressure;BME280_temperature;BME280_humidity;BME280_pressure;Samples;Min_cycle;Max_cycle;Signal;HPM_P1;HPM_P2
2022/12/19 00:03:45;;;;;;;163.75;56.58;;;;;;;;;;12840574;19;20318;-66
2022/12/19 00:08:02;;;;;;;131.75;50.25;;;;;;;;;;12839534;19;20311;-69
2022/12/19 00:12:32;;;;;;;145.20;51.58;;;;;;;;;;12840127;19;20495;-66
2022/12/19 00:16:49;;;;;;;106.85;43.17;;;;;;;;;;12838869;19;20082;-66
2022/12/19 00:21:10;;;;;;;111.70;45.43;;;;;;;;;;12837367;19;20295;-66
2022/12/19 00:25:27;;;;;;;100.22;41.75;;;;;;;;;;12836206;19;20456;-65
2022/12/19 00:29:44;;;;;;;80.25;36.20;;;;;;;;;;12842922;19;20003;-65
2022/12/19 00:34:03;;;;;;;93.35;40.33;;;;;;;;;;12838006;19;20426;-65
2022/12/19 00:38:19;;;;;;;68.90;31.95;;;;;;;;;;12837483;19;20461;-65
2022/12/19 00:42:36;;;;;;;74.90;29.48;;;;;;;;;;12837723;19;20472;-65
2022/12/19 00:46:54;;;;;;;69.03;30.65;;;;;;;;;;12837786;19;20041;-65
2022/12/19 00:51:22;;;;;;;78.82;33.60;;;;;;;;;;12837027;19;20476;-65
2022/12/19 00:55:38;;;;;;;75.15;32.00;;;;;;;;;;12837982;19;20536;-65
2022/12/19 00:59:57;;;;;;;51.75;22.23;;;;;;;;;;12836843;19;20369;-65
2022/12/19 01:04:14;;;;;;;51.92;22.83;;;;;;;;;;12837310;19;20432;-65
2022/12/19 01:08:51;;;;;;;63.08;26.98;;;;;;;;;;12836005;19;20433;-65
2022/12/19 01:13:08;;;;;;;63.40;27.15;;;;;;;;;;12836727;19;20342;-66
2022/12/19 01:17:25;;;;;;;51.75;23.65;;;;;;;;;;12836722;19;20490;-66
2022/12/19 01:21:42;;;;;;;51.42;22.08;;;;;;;;;;12835520;19;20433;-66
2022/12/19 01:26:00;;;;;;;40.77;18.23;;;;;;;;;;12835284;19;20448;-65
2022/12/19 01:30:17;;;;;;;42.47;18.90;;;;;;;;;;12838537;19;20461;-67
2022/12/19 01:34:35;;;;;;;48.17;21.60;;;;;;;;;;12848452;19;20018;-65
2022/12/19 01:38:55;;;;;;;40.58;20.92;;;;;;;;;;12847424;19;20461;-65
2022/12/19 01:43:13;;;;;;;32.72;17.10;;;;;;;;;;12846873;19;20056;-65
2022/12/19 01:47:34;;;;;;;41.03;18.73;;;;;;;;;;12847287;19;20413;-66
2022/12/19 01:51:55;;;;;;;37.90;19.85;;;;;;;;;;12846423;19;20367;-67
2022/12/19 01:56:12;;;;;;;34.75;17.98;;;;;;;;;;12844940;19;20014;-64
2022/12/19 02:00:31;;;;;;;43.70;19.27;;;;;;;;;;12847027;19;20437;-66
2022/12/19 02:04:48;;;;;;;41.75;18.65;;;;;;;;;;12846039;19;20469;-65
2022/12/19 02:09:05;;;;;;;47.30;22.05;;;;;;;;;;12845136;19;20405;-65
2022/12/19 02:13:23;;;;;;;39.92;19.00;;;;;;;;;;12845228;19;20461;-65
2022/12/19 02:18:36;;;;;;;33.23;16.57;;;;;;;;;;12844085;19;20379;-65
2022/12/19 02:23:45;;;;;;;49.17;23.13;;;;;;;;;;12841877;19;20429;-65
2022/12/19 02:28:31;;;;;;;50.88;23.17;;;;;;;;;;12841898;19;20436;-65
2022/12/19 02:33:02;;;;;;;44.95;22.25;;;;;;;;;;12844922;19;20010;-65
2022/12/19 02:37:27;;;;;;;43.90;19.92;;;;;;;;;;12840668;19;20374;-65
2022/12/19 02:41:57;;;;;;;35.35;17.92;;;;;;;;;;12841069;19;20018;-65
2022/12/19 02:46:15;;;;;;;;;;;;;;;;;;12842753;19;20542;-66
2022/12/19 02:50:44;;;;;;;31.52;15.95;;;;;;;;;;12843609;19;19922;-65
2022/12/19 02:55:12;;;;;;;30.63;16.30;;;;;;;;;;12843445;19;20027;-66
2022/12/19 02:59:57;;;;;;;34.95;17.40;;;;;;;;;;12842350;19;20330;-65
2022/12/19 03:04:33;;;;;;;35.90;17.00;;;;;;;;;;12841276;19;20482;-65
2022/12/19 03:09:15;;;;;;;36.53;18.85;;;;;;;;;;12841944;19;20457;-65
2022/12/19 03:14:00;;;;;;;33.65;18.17;;;;;;;;;;12841494;19;20010;-65
2022/12/19 03:18:18;;;;;;;36.45;16.60;;;;;;;;;;12840011;19;20468;-65
2022/12/19 03:22:36;;;;;;;34.22;17.75;;;;;;;;;;12840121;19;20077;-65
2022/12/19 03:27:08;;;;;;;38.30;17.42;;;;;;;;;;12843176;19;20010;-64
2022/12/19 03:31:28;;;;;;;40.83;21.42;;;;;;;;;;12839181;19;20637;-66
2022/12/19 03:35:47;;;;;;;37.60;16.33;;;;;;;;;;12839095;19;20007;-66
2022/12/19 03:40:16;;;;;;;45.25;22.85;;;;;;;;;;12837818;19;20516;-64
2022/12/19 03:44:37;;;;;;;32.20;15.85;;;;;;;;;;12840141;19;20086;-65
2022/12/19 03:48:55;;;;;;;33.13;16.90;;;;;;;;;;12838426;19;20539;-65
2022/12/19 03:53:47;;;;;;;31.60;15.70;;;;;;;;;;12836625;19;20430;-65
2022/12/19 03:58:19;;;;;;;40.33;18.52;;;;;;;;;;12838372;19;20359;-66
2022/12/19 04:02:39;;;;;;;31.75;16.13;;;;;;;;;;12837705;19;20460;-65
2022/12/19 04:06:58;;;;;;;40.38;17.80;;;;;;;;;;12837152;19;20007;-65
2022/12/19 04:11:18;;;;;;;41.85;18.67;;;;;;;;;;12837166;19;20429;-65
2022/12/19 04:15:44;;;;;;;37.83;19.58;;;;;;;;;;12836795;19;20448;-65
2022/12/19 04:20:19;;;;;;;43.65;21.02;;;;;;;;;;12837158;19;20497;-65
2022/12/19 04:24:42;;;;;;;37.95;20.02;;;;;;;;;;12837044;19;20370;-65
2022/12/19 04:29:04;;;;;;;40.85;20.75;;;;;;;;;;12836554;19;20434;-64
2022/12/19 04:33:21;;;;;;;29.83;16.13;;;;;;;;;;12833079;19;20030;-65
2022/12/19 04:37:39;;;;;;;30.67;15.27;;;;;;;;;;12837080;19;20010;-65
2022/12/19 04:41:56;;;;;;;34.97;16.30;;;;;;;;;;12837628;19;20035;-65
2022/12/19 04:46:13;;;;;;;34.90;17.48;;;;;;;;;;12834193;19;20334;-66
2022/12/19 04:50:32;;;;;;;35.15;16.27;;;;;;;;;;12836488;19;20434;-65
2022/12/19 04:54:49;;;;;;;34.85;14.65;;;;;;;;;;12837433;19;20431;-66
2022/12/19 04:59:06;;;;;;;30.30;15.23;;;;;;;;;;12835240;19;20456;-66
2022/12/19 05:03:23;;;;;;;30.58;14.98;;;;;;;;;;12836569;19;20341;-66
2022/12/19 05:07:41;;;;;;;;;;;;;;;;;;12849531;19;20014;-65
2022/12/19 05:11:58;;;;;;;53.03;24.75;;;;;;;;;;12849041;19;20298;-65
2022/12/19 05:16:16;;;;;;;41.33;20.50;;;;;;;;;;12847201;19;20497;-65
2022/12/19 05:20:35;;;;;;;47.13;22.67;;;;;;;;;;12846148;19;20291;-68
2022/12/19 05:24:53;;;;;;;39.25;19.38;;;;;;;;;;12848330;19;20034;-65
2022/12/19 05:29:09;;;;;;;39.38;18.77;;;;;;;;;;12846790;19;20456;-65
2022/12/19 05:33:26;;;;;;;61.30;27.45;;;;;;;;;;12847376;19;20011;-65
2022/12/19 05:37:44;;;;;;;59.78;25.60;;;;;;;;;;12846468;19;20014;-65
2022/12/19 05:42:01;;;;;;;49.88;24.08;;;;;;;;;;12847242;19;20006;-65
2022/12/19 05:46:19;;;;;;;37.75;17.58;;;;;;;;;;12846108;19;20045;-66
2022/12/19 05:50:36;;;;;;;39.03;17.77;;;;;;;;;;12846050;19;20326;-65
2022/12/19 05:54:53;;;;;;;35.75;16.20;;;;;;;;;;12846082;19;20337;-65
2022/12/19 05:59:10;;;;;;;36.45;16.30;;;;;;;;;;12845023;19;20283;-65
2022/12/19 06:03:27;;;;;;;32.95;15.90;;;;;;;;;;12845396;19;20038;-64
2022/12/19 06:07:45;;;;;;;36.33;16.35;;;;;;;;;;12845647;19;20014;-65
2022/12/19 06:12:02;;;;;;;38.63;17.90;;;;;;;;;;12845660;19;20445;-64
2022/12/19 06:16:21;;;;;;;42.72;19.70;;;;;;;;;;12842948;19;20087;-65
2022/12/19 06:20:38;;;;;;;43.47;18.08;;;;;;;;;;12788879;19;20646;-65
2022/12/19 06:24:55;;;;;;;45.40;17.65;;;;;;;;;;12845581;19;20006;-65
2022/12/19 06:29:12;;;;;;;41.80;19.05;;;;;;;;;;12843647;19;20432;-65
2022/12/19 06:33:31;;;;;;;37.30;18.20;;;;;;;;;;12844070;19;20323;-65
2022/12/19 06:37:48;;;;;;;41.63;18.45;;;;;;;;;;12843787;19;20430;-66
2022/12/19 06:42:22;;;;;;;38.92;17.40;;;;;;;;;;12843053;19;20302;-65
2022/12/19 06:46:41;;;;;;;39.90;17.70;;;;;;;;;;12841351;19;20343;-66
2022/12/19 06:50:58;;;;;;;39.70;17.70;;;;;;;;;;12843021;19;20438;-65
2022/12/19 06:55:15;;;;;;;43.20;16.65;;;;;;;;;;12841600;19;20398;-65
2022/12/19 06:59:32;;;;;;;38.53;16.90;;;;;;;;;;12842642;19;20337;-64
2022/12/19 07:03:50;;;;;;;53.70;19.40;;;;;;;;;;12842081;19;20006;-65
2022/12/19 07:08:08;;;;;;;50.22;19.63;;;;;;;;;;12842371;19;20006;-65
2022/12/19 07:12:26;;;;;;;45.60;18.48;;;;;;;;;;12839841;19;20456;-65
2022/12/19 07:16:45;;;;;;;46.13;18.02;;;;;;;;;;12841507;19;20369;-64
2022/12/19 07:21:04;;;;;;;46.58;19.33;;;;;;;;;;12841200;19;20445;-65
2022/12/19 07:25:21;;;;;;;42.75;18.77;;;;;;;;;;12733313;19;20011;-66
2022/12/19 07:29:38;;;;;;;42.00;18.55;;;;;;;;;;12838389;19;20441;-65
2022/12/19 07:33:56;;;;;;;38.00;15.70;;;;;;;;;;12841033;19;20291;-65
2022/12/19 07:38:14;;;;;;;;;;;;;;;;;;12786357;19;20651;-65
2022/12/19 07:42:31;;;;;;;39.00;17.80;;;;;;;;;;12840249;19;20238;-66
2022/12/19 07:46:48;;;;;;;37.58;16.40;;;;;;;;;;12786458;19;20435;-65
2022/12/19 07:51:05;;;;;;;39.20;17.90;;;;;;;;;;12839655;19;20014;-66
2022/12/19 07:55:22;;;;;;;38.83;17.90;;;;;;;;;;12839558;19;22855;-65
2022/12/19 07:59:39;;;;;;;38.40;17.70;;;;;;;;;;12839253;19;20002;-65
2022/12/19 08:03:57;;;;;;;35.38;15.90;;;;;;;;;;12782227;19;20513;-65
2022/12/19 08:08:15;;;;;;;33.60;15.05;;;;;;;;;;12838722;19;20333;-66
2022/12/19 08:12:33;;;;;;;68.88;31.45;;;;;;;;;;12838904;19;20344;-65
2022/12/19 08:16:50;;;;;;;40.78;18.63;;;;;;;;;;12838498;19;20442;-66
2022/12/19 08:21:27;;;;;;;32.33;15.90;;;;;;;;;;12837233;19;20553;-66
2022/12/19 08:25:44;;;;;;;35.47;15.38;;;;;;;;;;12841650;19;20015;-66
2022/12/19 08:30:01;;;;;;;39.72;16.80;;;;;;;;;;12837935;19;20021;-65
2022/12/19 08:34:19;;;;;;;;;;;;;;;;;;12839257;19;20346;-65
2022/12/19 08:38:38;;;;;;;37.22;17.65;;;;;;;;;;12838832;19;19956;-66
2022/12/19 08:42:55;;;;;;;40.28;18.45;;;;;;;;;;12847228;19;20301;-65
2022/12/19 08:47:12;;;;;;;42.33;18.02;;;;;;;;;;12848784;19;20303;-65
2022/12/19 08:51:29;;;;;;;29.70;13.93;;;;;;;;;;12848838;19;20330;-66
2022/12/19 08:55:49;;;;;;;31.48;15.60;;;;;;;;;;12848302;19;20290;-65
2022/12/19 09:00:07;;;;;;;34.90;16.50;;;;;;;;;;12847475;19;20452;-65
2022/12/19 09:04:26;;;;;;;49.65;22.50;;;;;;;;;;12847464;19;20006;-65
2022/12/19 09:09:04;;;;;;;52.10;24.85;;;;;;;;;;12847528;19;20015;-65
2022/12/19 09:13:21;;;;;;;34.92;16.90;;;;;;;;;;12847672;19;20449;-65
2022/12/19 09:17:39;;;;;;;37.72;17.13;;;;;;;;;;12847101;19;20042;-65
2022/12/19 09:21:56;;;;;;;32.47;15.35;;;;;;;;;;12846461;19;20455;-65
2022/12/19 09:26:13;;;;;;;46.03;21.00;;;;;;;;;;12847046;19;20483;-65
2022/12/19 09:30:30;;;;;;;33.70;16.85;;;;;;;;;;12848459;19;20418;-65
2022/12/19 09:34:48;;;;;;;37.50;17.50;;;;;;;;;;12848667;19;20032;-65
2022/12/19 09:39:05;;;;;;;33.33;14.13;;;;;;;;;;12846001;19;20322;-65
2022/12/19 09:43:40;;;;;;;39.97;16.20;;;;;;;;;;12847394;19;20476;-65
2022/12/19 09:47:58;;;;;;;30.15;15.25;;;;;;;;;;12847499;19;20437;-65
2022/12/19 09:52:27;;;;;;;30.98;16.38;;;;;;;;;;12843792;19;20437;-65
2022/12/19 09:56:52;;;;;;;34.75;16.77;;;;;;;;;;12847541;19;20322;-66
2022/12/19 10:01:25;;;;;;;309.25;105.47;;;;;;;;;;12843855;19;20464;-66
2022/12/19 10:05:54;;;;;;;87.85;32.55;;;;;;;;;;12845444;19;20018;-65
2022/12/19 10:11:06;;;;;;;54.10;24.25;;;;;;;;;;12844062;19;20078;-65
2022/12/19 10:16:21;;;;;;;56.58;22.27;;;;;;;;;;12841468;19;20382;-66
2022/12/19 10:21:08;;;;;;;64.07;22.67;;;;;;;;;;12835131;19;20014;-67
2022/12/19 10:25:36;;;;;;;68.25;26.25;;;;;;;;;;12840679;19;20340;-65
2022/12/19 10:30:15;;;;;;;101.90;32.58;;;;;;;;;;12844314;19;20375;-65
2022/12/19 10:34:38;;;;;;;108.32;31.40;;;;;;;;;;12842847;19;20353;-67
2022/12/19 10:39:07;;;;;;;108.68;42.72;;;;;;;;;;12840598;19;20430;-65
2022/12/19 10:43:50;;;;;;;78.90;29.47;;;;;;;;;;12840895;19;20360;-66
2022/12/19 10:48:16;;;;;;;59.67;25.08;;;;;;;;;;12841883;19;20422;-65
2022/12/19 10:52:55;;;;;;;74.07;32.55;;;;;;;;;;12840187;19;20437;-66
2022/12/19 10:57:26;;;;;;;92.82;38.35;;;;;;;;;;12842445;19;20452;-66
2022/12/19 11:01:43;;;;;;;71.53;30.27;;;;;;;;;;12840849;19;20311;-65
2022/12/19 11:06:05;;;;;;;49.97;21.60;;;;;;;;;;12841177;19;20461;-65
2022/12/19 11:11:09;;;;;;;80.47;35.88;;;;;;;;;;12841625;19;20332;-65
2022/12/19 11:15:52;;;;;;;80.72;36.05;;;;;;;;;;12842107;19;20667;-65
2022/12/19 11:20:29;;;;;;;58.80;25.98;;;;;;;;;;12838903;19;20667;-65
2022/12/19 11:25:15;;;;;;;63.17;27.73;;;;;;;;;;12840528;19;20440;-65
2022/12/19 11:29:52;;;;;;;95.70;43.42;;;;;;;;;;12840462;19;20506;-65
2022/12/19 11:34:35;;;;;;;52.50;25.92;;;;;;;;;;12839640;19;20359;-65
2022/12/19 11:38:52;;;;;;;61.40;31.52;;;;;;;;;;12838199;19;20473;-65
2022/12/19 11:43:48;;;;;;;64.78;31.95;;;;;;;;;;12839441;19;20318;-65
2022/12/19 11:48:28;;;;;;;90.22;39.78;;;;;;;;;;12837889;19;20460;-65
2022/12/19 11:53:10;;;;;;;52.80;23.80;;;;;;;;;;12839471;19;20394;-66
2022/12/19 11:57:37;;;;;;;45.80;21.38;;;;;;;;;;12838022;19;20007;-65
2022/12/19 12:02:39;;;;;;;44.17;21.63;;;;;;;;;;12836906;19;20667;-66
2022/12/19 12:06:58;;;;;;;48.05;22.40;;;;;;;;;;12834863;19;20014;-66
2022/12/19 12:11:31;;;;;;;40.38;19.25;;;;;;;;;;12837820;19;20603;-67
2022/12/19 12:16:14;;;;;;;42.90;20.48;;;;;;;;;;12835912;19;20520;-65
2022/12/19 12:21:11;;;;;;;39.33;20.65;;;;;;;;;;12835797;19;20014;-65
2022/12/19 12:26:29;;;;;;;38.90;19.80;;;;;;;;;;12837493;19;20302;-66
2022/12/19 12:31:42;;;;;;;45.80;22.50;;;;;;;;;;12834776;19;20430;-66
2022/12/19 12:36:52;;;;;;;50.58;25.15;;;;;;;;;;12836785;19;20076;-65
2022/12/19 12:42:02;;;;;;;42.15;19.95;;;;;;;;;;12834828;19;20501;-65
2022/12/19 12:46:26;;;;;;;45.10;19.02;;;;;;;;;;12836382;19;20505;-66
2022/12/19 12:50:46;;;;;;;44.83;23.17;;;;;;;;;;12834561;19;20353;-66
2022/12/19 12:55:22;;;;;;;57.15;29.98;;;;;;;;;;12834646;19;20430;-66
2022/12/19 12:59:45;;;;;;;62.70;31.40;;;;;;;;;;12833946;19;20421;-65
2022/12/19 13:04:25;;;;;;;54.45;28.63;;;;;;;;;;12835431;19;20464;-66
2022/12/19 13:08:48;;;;;;;66.53;34.25;;;;;;;;;;12834115;19;20010;-65
2022/12/19 13:13:13;;;;;;;52.53;25.98;;;;;;;;;;12834243;19;20442;-66
2022/12/19 13:17:38;;;;;;;74.63;39.60;;;;;;;;;;12834657;19;20468;-65
2022/12/19 13:22:06;;;;;;;51.88;26.50;;;;;;;;;;12833680;19;20037;-65
2022/12/19 13:26:45;;;;;;;61.80;30.85;;;;;;;;;;12841199;19;20325;-65
2022/12/19 13:31:03;;;;;;;52.38;26.05;;;;;;;;;;12847177;19;20527;-65
2022/12/19 13:35:37;;;;;;;49.28;25.50;;;;;;;;;;12847385;19;20429;-65
2022/12/19 13:40:28;;;;;;;55.30;27.27;;;;;;;;;;12846374;19;20533;-67
2022/12/19 13:44:50;;;;;;;60.33;27.40;;;;;;;;;;12846847;19;20375;-65
2022/12/19 13:49:21;;;;;;;59.60;26.73;;;;;;;;;;12846424;19;20326;-65
2022/12/19 13:53:42;;;;;;;53.63;26.92;;;;;;;;;;12845929;19;20433;-65
2022/12/19 13:58:02;;;;;;;;;;;;;;;;;;12847018;19;20014;-65
2022/12/19 14:02:34;;;;;;;57.83;27.58;;;;;;;;;;12846726;19;20341;-65
2022/12/19 14:07:18;;;;;;;53.25;25.92;;;;;;;;;;12846648;19;20436;-65
2022/12/19 14:11:42;;;;;;;55.72;23.25;;;;;;;;;;12845723;19;20461;-64
2022/12/19 14:16:23;;;;;;;48.40;24.15;;;;;;;;;;12845410;19;20021;-66
2022/12/19 14:21:16;;;;;;;48.30;22.05;;;;;;;;;;12844043;19;20361;-65
2022/12/19 14:25:54;;;;;;;50.33;23.65;;;;;;;;;;12843452;19;20394;-65
2022/12/19 14:30:33;;;;;;;;;;;;;;;;;;12845259;19;20534;-65
2022/12/19 14:34:52;;;;;;;57.38;26.48;;;;;;;;;;12843364;19;20298;-65
2022/12/19 14:39:33;;;;;;;64.93;29.23;;;;;;;;;;12839821;19;20010;-66
2022/12/19 14:43:54;;;;;;;49.70;24.27;;;;;;;;;;12837951;19;20010;-65
2022/12/19 14:48:45;;;;;;;43.35;19.38;;;;;;;;;;12844199;19;20437;-65
2022/12/19 14:53:22;;;;;;;49.60;23.20;;;;;;;;;;12842463;19;20030;-65
2022/12/19 14:58:09;;;;;;;59.13;26.20;;;;;;;;;;12842848;19;20463;-65
2022/12/19 15:02:46;;;;;;;49.92;23.85;;;;;;;;;;12841930;19;20287;-66
2022/12/19 15:07:08;;;;;;;59.93;23.13;;;;;;;;;;12840075;19;20353;-65
2022/12/19 15:16:30;;;;;;;42.03;19.77;;;;;;;;;;12840409;19;20432;-65
2022/12/19 15:20:49;;;;;;;43.42;19.20;;;;;;;;;;12839174;19;20429;-66
2022/12/19 15:25:06;;;;;;;44.08;20.58;;;;;;;;;;12840401;19;20425;-66
2022/12/19 15:29:44;;;;;;;50.42;22.00;;;;;;;;;;12840153;19;20298;-66
2022/12/19 15:34:26;;;;;;;57.30;24.27;;;;;;;;;;12840841;19;20307;-65
2022/12/19 15:39:02;;;;;;;61.78;22.88;;;;;;;;;;12837782;19;20600;-65
2022/12/19 15:43:21;;;;;;;63.00;28.25;;;;;;;;;;12840285;19;20334;-65
2022/12/19 15:47:59;;;;;;;51.40;24.50;;;;;;;;;;12839504;19;20316;-65
2022/12/19 15:52:18;;;;;;;57.00;26.95;;;;;;;;;;12840058;19;20433;-65
2022/12/19 15:56:42;;;;;;;108.28;48.05;;;;;;;;;;12841005;19;20456;-65
2022/12/19 16:01:02;;;;;;;72.30;32.75;;;;;;;;;;12841180;19;20038;-65
2022/12/19 16:05:21;;;;;;;77.30;31.45;;;;;;;;;;12840418;19;20078;-65
2022/12/19 16:09:39;;;;;;;67.75;30.10;;;;;;;;;;12841298;19;20440;-66
2022/12/19 16:13:57;;;;;;;61.10;26.40;;;;;;;;;;12840102;19;20413;-64
2022/12/19 16:18:14;;;;;;;49.85;23.65;;;;;;;;;;12839233;19;20375;-65
2022/12/19 16:22:32;;;;;;;50.17;23.10;;;;;;;;;;12837791;19;20426;-65
2022/12/19 16:26:57;;;;;;;44.15;21.77;;;;;;;;;;12838787;19;20033;-65
2022/12/19 16:31:15;;;;;;;39.42;19.35;;;;;;;;;;12837046;19;20417;-65
2022/12/19 16:35:32;;;;;;;41.20;20.42;;;;;;;;;;12836928;19;20470;-66
2022/12/19 16:40:18;;;;;;;45.95;23.65;;;;;;;;;;12840288;19;20399;-66
2022/12/19 16:44:35;;;;;;;50.25;24.42;;;;;;;;;;12838023;19;20317;-65
2022/12/19 16:48:52;;;;;;;51.65;23.15;;;;;;;;;;12838162;19;20433;-65
2022/12/19 16:53:09;;;;;;;55.13;24.60;;;;;;;;;;12838124;19;20465;-65
2022/12/19 16:57:26;;;;;;;54.28;23.17;;;;;;;;;;12838861;19;20335;-66
2022/12/19 17:01:44;;;;;;;62.33;26.70;;;;;;;;;;12844935;19;20015;-65
2022/12/19 17:06:03;;;;;;;61.90;26.63;;;;;;;;;;12850849;19;20399;-64
2022/12/19 17:10:26;;;;;;;78.43;34.25;;;;;;;;;;12848470;19;20014;-64
2022/12/19 17:14:43;;;;;;;73.82;33.33;;;;;;;;;;12848164;19;20307;-65
2022/12/19 17:19:01;;;;;;;67.60;30.02;;;;;;;;;;12848855;19;20467;-64
2022/12/19 17:23:23;;;;;;;79.37;35.03;;;;;;;;;;12845198;19;20441;-65
2022/12/19 17:27:40;;;;;;;77.45;36.40;;;;;;;;;;12846486;19;20303;-65
2022/12/19 17:31:57;;;;;;;97.65;40.70;;;;;;;;;;12848794;19;20437;-64
2022/12/19 17:36:15;;;;;;;105.55;44.33;;;;;;;;;;12847344;19;20322;-65
2022/12/19 17:40:41;;;;;;;129.52;54.50;;;;;;;;;;12845467;19;20323;-66
2022/12/19 17:44:58;;;;;;;88.85;40.97;;;;;;;;;;12847805;19;20342;-64
2022/12/19 17:49:28;;;;;;;55.83;27.75;;;;;;;;;;12843099;19;20460;-65
2022/12/19 17:53:46;;;;;;;93.97;37.70;;;;;;;;;;12847464;19;20314;-65
2022/12/19 17:58:03;;;;;;;70.77;31.00;;;;;;;;;;12845310;19;20326;-64
2022/12/19 18:02:24;;;;;;;90.22;37.78;;;;;;;;;;12845022;19;20535;-65
2022/12/19 18:06:42;;;;;;;88.50;37.13;;;;;;;;;;12843839;19;20477;-64
2022/12/19 18:11:02;;;;;;;107.38;39.55;;;;;;;;;;12844642;19;20441;-65
2022/12/19 18:15:22;;;;;;;81.55;33.78;;;;;;;;;;12845054;19;20441;-65
2022/12/19 18:19:39;;;;;;;72.53;30.45;;;;;;;;;;12843609;19;20727;-67
2022/12/19 18:23:56;;;;;;;61.42;26.83;;;;;;;;;;12845355;19;20436;-65
2022/12/19 18:28:14;;;;;;;64.50;28.70;;;;;;;;;;12841204;19;20321;-65
2022/12/19 18:32:31;;;;;;;;;;;;;;;;;;12845775;19;20422;-64
2022/12/19 18:36:49;;;;;;;70.88;31.48;;;;;;;;;;12844364;19;20205;-64
2022/12/19 18:41:11;;;;;;;78.68;33.25;;;;;;;;;;12727107;19;20424;-65
2022/12/19 18:45:40;;;;;;;77.80;33.38;;;;;;;;;;12834821;19;20425;-65
2022/12/19 18:49:57;;;;;;;75.35;32.08;;;;;;;;;;12841470;19;20007;-64
2022/12/19 18:54:18;;;;;;;79.80;34.65;;;;;;;;;;12842304;19;20048;-66
2022/12/19 18:58:36;;;;;;;86.38;37.60;;;;;;;;;;12842895;19;20287;-64
2022/12/19 19:03:00;;;;;;;88.65;39.70;;;;;;;;;;12838245;19;20444;-64
2022/12/19 19:07:18;;;;;;;89.82;39.10;;;;;;;;;;12839532;19;20440;-65
2022/12/19 19:11:35;;;;;;;69.43;31.10;;;;;;;;;;12842282;19;20028;-64
2022/12/19 19:15:57;;;;;;;62.03;27.55;;;;;;;;;;12842021;19;20024;-65
2022/12/19 19:20:14;;;;;;;56.35;24.70;;;;;;;;;;12838602;19;20054;-64
2022/12/19 19:24:31;;;;;;;50.67;23.93;;;;;;;;;;12840391;19;20468;-64
2022/12/19 19:28:48;;;;;;;60.13;26.15;;;;;;;;;;12752398;19;20037;-65
2022/12/19 19:33:20;;;;;;;51.70;22.48;;;;;;;;;;12840009;19;20601;-64
2022/12/19 19:37:37;;;;;;;56.80;23.75;;;;;;;;;;12838736;19;20275;-65
2022/12/19 19:41:55;;;;;;;65.22;26.10;;;;;;;;;;12838728;19;20449;-64
2022/12/19 19:46:12;;;;;;;54.70;25.25;;;;;;;;;;12838693;19;20007;-65
2022/12/19 19:50:30;;;;;;;56.17;24.90;;;;;;;;;;12840746;19;20318;-65
2022/12/19 19:54:46;;;;;;;48.47;23.30;;;;;;;;;;12840442;19;20414;-65
2022/12/19 19:59:04;;;;;;;51.53;25.33;;;;;;;;;;12838670;19;20740;-65
2022/12/19 20:03:22;;;;;;;62.73;27.47;;;;;;;;;;12838542;19;20496;-64
2022/12/19 20:07:39;;;;;;;;;;;;;;;;;;12840276;19;20002;-67
2022/12/19 20:11:57;;;;;;;60.60;24.15;;;;;;;;;;12839152;19;20397;-64
2022/12/19 20:16:17;;;;;;;52.40;23.05;;;;;;;;;;12835962;19;20052;-65
2022/12/19 20:20:34;;;;;;;53.72;23.55;;;;;;;;;;12835972;19;20713;-64
2022/12/19 20:24:52;;;;;;;55.40;23.58;;;;;;;;;;12838496;19;20418;-65
2022/12/19 20:29:10;;;;;;;49.10;24.02;;;;;;;;;;12837660;19;20326;-65
2022/12/19 20:33:27;;;;;;;47.55;22.30;;;;;;;;;;12783172;19;20448;-65
2022/12/19 20:37:44;;;;;;;51.95;23.27;;;;;;;;;;12835468;19;20488;-65
2022/12/19 20:42:01;;;;;;;53.38;24.05;;;;;;;;;;12836733;19;20011;-66
2022/12/19 20:46:20;;;;;;;53.15;23.55;;;;;;;;;;12838295;19;20429;-65
2022/12/19 20:50:39;;;;;;;59.40;26.63;;;;;;;;;;12836328;19;20471;-65
2022/12/19 20:54:59;;;;;;;67.97;29.50;;;;;;;;;;12836861;19;20455;-64
2022/12/19 20:59:16;;;;;;;68.90;28.55;;;;;;;;;;12835039;19;20007;-65
2022/12/19 21:03:35;;;;;;;74.55;32.28;;;;;;;;;;12836291;19;20318;-66
2022/12/19 21:07:52;;;;;;;74.18;31.25;;;;;;;;;;12835586;19;20811;-64
2022/12/19 21:12:11;;;;;;;76.65;32.28;;;;;;;;;;12834510;19;20313;-64
2022/12/19 21:16:28;;;;;;;85.13;34.22;;;;;;;;;;12708810;19;20040;-64
2022/12/19 21:20:45;;;;;;;82.30;31.48;;;;;;;;;;12831720;19;20298;-65
2022/12/19 21:25:03;;;;;;;142.82;46.55;;;;;;;;;;12835718;19;20042;-65
2022/12/19 21:29:20;;;;;;;139.63;43.78;;;;;;;;;;12759287;19;20473;-65
2022/12/19 21:33:37;;;;;;;96.95;33.28;;;;;;;;;;12835792;19;20019;-64
2022/12/19 21:37:55;;;;;;;180.23;51.03;;;;;;;;;;12835338;19;20461;-65
2022/12/19 21:42:12;;;;;;;143.93;44.58;;;;;;;;;;12832621;19;20322;-65
2022/12/19 21:46:34;;;;;;;81.65;30.90;;;;;;;;;;12834962;19;20036;-65
2022/12/19 21:50:55;;;;;;;63.65;25.48;;;;;;;;;;12846629;19;20314;-64
2022/12/19 21:55:12;;;;;;;48.90;22.80;;;;;;;;;;12846595;19;20445;-65
2022/12/19 21:59:29;;;;;;;51.90;23.55;;;;;;;;;;12845718;19;20429;-65
2022/12/19 22:03:46;;;;;;;57.97;24.20;;;;;;;;;;12845955;19;20431;-64
2022/12/19 22:08:04;;;;;;;75.20;30.47;;;;;;;;;;12802876;19;20356;-64
2022/12/19 22:12:21;;;;;;;61.78;27.95;;;;;;;;;;12844420;19;20322;-65
2022/12/19 22:16:38;;;;;;;53.65;24.25;;;;;;;;;;12845103;19;20367;-65
2022/12/19 22:20:57;;;;;;;65.18;26.02;;;;;;;;;;12843458;19;20429;-64
2022/12/19 22:25:14;;;;;;;63.58;26.67;;;;;;;;;;12843470;19;20318;-65
2022/12/19 22:29:35;;;;;;;70.10;30.25;;;;;;;;;;12844583;19;20023;-64
2022/12/19 22:33:56;;;;;;;64.45;30.13;;;;;;;;;;12844134;19;20299;-64
2022/12/19 22:38:13;;;;;;;59.17;28.85;;;;;;;;;;12843425;19;20437;-64
2022/12/19 22:42:30;;;;;;;61.95;29.52;;;;;;;;;;12842903;19;20349;-64
2022/12/19 22:46:48;;;;;;;71.70;31.75;;;;;;;;;;12843287;19;20485;-66
2022/12/19 22:51:07;;;;;;;58.95;24.35;;;;;;;;;;12843270;19;20329;-65
2022/12/19 22:55:24;;;;;;;56.20;24.13;;;;;;;;;;12843590;19;20422;-65
2022/12/19 22:59:41;;;;;;;46.50;21.40;;;;;;;;;;12840971;19;20142;-65
2022/12/19 23:04:01;;;;;;;55.38;23.95;;;;;;;;;;12843355;19;20003;-64
2022/12/19 23:08:18;;;;;;;50.13;23.13;;;;;;;;;;12841538;19;20422;-65
2022/12/19 23:12:35;;;;;;;58.97;24.00;;;;;;;;;;12841644;19;20437;-66
2022/12/19 23:16:52;;;;;;;61.47;26.98;;;;;;;;;;12841326;19;20452;-64
2022/12/19 23:21:17;;;;;;;50.55;24.55;;;;;;;;;;12840183;19;20461;-67
2022/12/19 23:25:41;;;;;;;54.85;22.95;;;;;;;;;;12840940;19;20037;-65
2022/12/19 23:29:58;;;;;;;57.25;24.15;;;;;;;;;;12841608;19;20421;-64
2022/12/19 23:34:16;;;;;;;47.38;23.70;;;;;;;;;;12840065;19;20138;-64
2022/12/19 23:38:33;;;;;;;60.47;22.15;;;;;;;;;;12840311;19;20027;-65
2022/12/19 23:42:50;;;;;;;45.50;19.45;;;;;;;;;;12839608;19;20390;-64
2022/12/19 23:47:07;;;;;;;53.97;22.52;;;;;;;;;;12840046;19;20418;-65
2022/12/19 23:51:26;;;;;;;50.67;21.33;;;;;;;;;;12840185;19;20043;-65
2022/12/19 23:55:43;;;;;;;45.00;20.85;;;;;;;;;;12839708;19;20014;-64
